createdAt,value
2022-07-26T00:01:33.633Z,8.70
2022-07-26T00:04:35.936Z,10.60
2022-07-26T00:07:39.324Z,10.70
2022-07-26T00:10:44.095Z,9.10
2022-07-26T00:13:46.083Z,9.60
2022-07-26T00:16:48.362Z,8.70
2022-07-26T00:19:50.186Z,8.70
2022-07-26T00:22:51.960Z,8.40
2022-07-26T00:25:53.678Z,8.20
2022-07-26T00:28:55.531Z,8.10
2022-07-26T00:31:57.411Z,8.60
2022-07-26T00:34:59.414Z,8.70
2022-07-26T00:38:01.210Z,8.90
2022-07-26T00:41:03.078Z,8.80
2022-07-26T00:44:05.128Z,7.90
2022-07-26T00:47:07.182Z,8.60
2022-07-26T00:50:12.422Z,8.60
2022-07-26T00:53:14.402Z,7.90
2022-07-26T00:56:17.381Z,9.00
2022-07-26T00:59:19.212Z,9.00
2022-07-26T01:02:20.997Z,8.60
2022-07-26T01:05:23.643Z,8.80
2022-07-26T01:08:25.547Z,8.70
2022-07-26T01:11:27.399Z,9.20
2022-07-26T01:14:29.291Z,10.00
2022-07-26T01:17:31.045Z,8.40
2022-07-26T01:20:36.361Z,8.60
2022-07-26T01:23:38.751Z,8.50
2022-07-26T01:26:40.599Z,8.30
2022-07-26T01:29:42.435Z,8.40
2022-07-26T01:32:44.292Z,8.80
2022-07-26T01:35:46.041Z,8.80
2022-07-26T01:38:48.034Z,9.00
2022-07-26T01:41:49.826Z,8.60
2022-07-26T01:44:51.558Z,8.20
2022-07-26T01:47:53.376Z,9.30
2022-07-26T01:50:55.241Z,8.30
2022-07-26T01:53:57.245Z,8.90
2022-07-26T01:57:10.514Z,8.60
2022-07-26T02:00:13.665Z,9.00
2022-07-26T02:03:15.728Z,8.20
2022-07-26T02:06:17.502Z,8.90
2022-07-26T02:09:19.684Z,8.70
2022-07-26T02:12:23.026Z,8.10
2022-07-26T02:15:24.975Z,10.50
2022-07-26T02:18:28.693Z,9.70
2022-07-26T02:21:30.492Z,9.80
2022-07-26T02:24:33.073Z,9.40
2022-07-26T02:27:34.953Z,8.40
2022-07-26T02:30:36.898Z,9.90
2022-07-26T02:33:38.610Z,10.10
2022-07-26T02:36:40.285Z,9.30
2022-07-26T02:39:42.253Z,10.10
2022-07-26T02:42:44.023Z,9.70
2022-07-26T02:45:45.815Z,10.10
2022-07-26T02:49:04.149Z,16.20
2022-07-26T02:52:05.933Z,22.60
2022-07-26T02:55:08.215Z,24.30
2022-07-26T02:58:10.001Z,19.10
2022-07-26T03:01:11.988Z,22.40
2022-07-26T03:04:15.452Z,25.80
2022-07-26T03:07:17.186Z,28.40
2022-07-26T03:10:19.111Z,34.40
2022-07-26T03:13:20.941Z,44.70
2022-07-26T03:16:27.348Z,47.20
2022-07-26T03:19:31.114Z,39.50
2022-07-26T03:22:32.923Z,31.20
2022-07-26T03:25:37.670Z,18.20
2022-07-26T03:28:42.272Z,15.10
2022-07-26T03:31:44.487Z,13.30
2022-07-26T03:34:46.435Z,14.50
2022-07-26T03:37:48.092Z,14.70
2022-07-26T03:40:49.892Z,14.30
2022-07-26T03:43:51.637Z,15.50
2022-07-26T03:46:53.477Z,12.70
2022-07-26T03:49:55.247Z,9.70
2022-07-26T03:52:57.023Z,10.40
2022-07-26T03:56:17.362Z,9.50
2022-07-26T03:59:19.297Z,8.50
2022-07-26T04:02:21.342Z,8.50
2022-07-26T04:05:23.944Z,8.30
2022-07-26T04:08:28.343Z,8.00
2022-07-26T04:11:30.422Z,8.60
2022-07-26T04:14:32.138Z,8.00
2022-07-26T04:17:40.946Z,8.30
2022-07-26T04:20:43.276Z,8.00
2022-07-26T04:23:50.754Z,8.30
2022-07-26T04:26:53.087Z,8.20
2022-07-26T04:29:54.937Z,10.90
2022-07-26T04:32:56.780Z,10.10
2022-07-26T04:35:58.978Z,8.90
2022-07-26T04:39:00.627Z,9.50
2022-07-26T04:42:02.326Z,9.00
2022-07-26T04:45:08.303Z,13.40
2022-07-26T04:48:10.522Z,18.10
2022-07-26T04:51:12.286Z,23.80
2022-07-26T04:54:15.670Z,18.20
2022-07-26T04:57:17.563Z,14.40
2022-07-26T05:00:24.381Z,12.10
2022-07-26T05:03:26.361Z,7.90
2022-07-26T05:06:28.075Z,7.50
2022-07-26T05:09:30.071Z,6.80
2022-07-26T05:12:31.925Z,7.20
2022-07-26T05:15:36.341Z,6.80
2022-07-26T05:18:48.847Z,6.80
2022-07-26T05:21:51.885Z,7.00
2022-07-26T05:24:53.516Z,12.80
2022-07-26T05:27:55.282Z,15.20
2022-07-26T05:30:57.091Z,8.30
2022-07-26T05:33:58.852Z,6.40
2022-07-26T05:37:00.673Z,6.10
2022-07-26T05:40:04.544Z,5.60
2022-07-26T05:43:06.405Z,6.90
2022-07-26T05:46:09.845Z,6.50
2022-07-26T05:49:11.923Z,7.30
2022-07-26T05:52:13.742Z,9.30
2022-07-26T05:55:15.520Z,11.90
2022-07-26T05:58:17.338Z,11.20
2022-07-26T06:01:19.704Z,10.60
2022-07-26T06:04:22.475Z,10.30
2022-07-26T06:07:26.942Z,15.50
2022-07-26T06:10:28.768Z,15.30
2022-07-26T06:13:30.665Z,9.10
2022-07-26T06:16:32.525Z,8.10
2022-07-26T06:19:35.026Z,6.30
2022-07-26T06:22:36.873Z,5.90
2022-07-26T06:25:38.863Z,6.00
2022-07-26T06:28:41.338Z,5.70
2022-07-26T06:31:43.202Z,5.80
2022-07-26T06:34:44.988Z,6.20
2022-07-26T06:37:49.334Z,7.00
2022-07-26T06:40:51.188Z,8.40
2022-07-26T06:43:54.525Z,6.40
2022-07-26T06:46:56.548Z,6.30
2022-07-26T06:50:00.066Z,7.40
2022-07-26T06:53:02.045Z,8.00
2022-07-26T06:56:04.185Z,8.60
2022-07-26T06:59:09.407Z,7.70
2022-07-26T07:02:11.400Z,7.00
2022-07-26T07:05:13.407Z,7.10
2022-07-26T07:08:15.851Z,6.40
2022-07-26T07:11:19.740Z,6.60
2022-07-26T07:14:22.234Z,6.10
2022-07-26T07:17:23.998Z,6.40
2022-07-26T07:20:26.699Z,6.20
2022-07-26T07:23:28.654Z,6.30
2022-07-26T07:26:30.523Z,6.80
2022-07-26T07:29:32.666Z,6.30
2022-07-26T07:32:34.677Z,6.40
2022-07-26T07:35:37.012Z,7.20
2022-07-26T07:38:38.743Z,7.60
2022-07-26T07:41:48.830Z,7.90
2022-07-26T07:44:50.789Z,8.30
2022-07-26T07:47:52.482Z,8.20
2022-07-26T07:50:54.618Z,7.90
2022-07-26T07:53:57.948Z,8.60
2022-07-26T07:57:01.099Z,8.20
2022-07-26T08:00:05.108Z,8.50
2022-07-26T08:03:07.090Z,8.90
2022-07-26T08:06:10.667Z,8.90
2022-07-26T08:09:13.309Z,8.80
2022-07-26T08:12:15.563Z,9.10
2022-07-26T08:15:17.747Z,9.10
2022-07-26T08:18:22.898Z,9.70
2022-07-26T08:21:28.302Z,9.60
2022-07-26T08:24:31.217Z,9.30
2022-07-26T08:27:40.438Z,9.40
2022-07-26T08:30:43.125Z,9.30
2022-07-26T08:33:45.748Z,9.80
2022-07-26T08:37:14.198Z,9.60
2022-07-26T08:40:10.396Z,9.70
2022-07-26T08:43:12.326Z,9.50
2022-07-26T08:46:14.329Z,9.80
2022-07-26T08:49:16.417Z,10.00
2022-07-26T08:52:18.211Z,10.30
2022-07-26T08:55:21.002Z,10.40
2022-07-26T08:58:22.748Z,10.70
2022-07-26T09:01:24.670Z,10.40
2022-07-26T09:04:32.785Z,10.80
2022-07-26T09:07:36.098Z,10.30
2022-07-26T09:10:39.350Z,11.10
2022-07-26T09:13:51.041Z,11.20
2022-07-26T09:16:58.689Z,11.80
2022-07-26T09:20:24.527Z,11.40
2022-07-26T09:23:40.008Z,12.20
2022-07-26T09:26:55.397Z,13.60
2022-07-26T09:30:05.962Z,13.20
2022-07-26T09:33:11.254Z,13.40
2022-07-26T09:36:13.585Z,13.50
2022-07-26T09:39:15.632Z,14.70
2022-07-26T09:42:28.474Z,14.50
2022-07-26T09:45:33.810Z,15.70
2022-07-26T09:49:09.858Z,14.70
2022-07-26T09:52:00.439Z,14.40
2022-07-26T09:55:06.358Z,14.00
2022-07-26T09:58:08.208Z,14.60
2022-07-26T10:01:09.995Z,14.50
2022-07-26T10:04:13.342Z,14.20
2022-07-26T10:07:17.265Z,15.50
2022-07-26T10:10:26.064Z,16.40
2022-07-26T10:13:28.573Z,16.90
2022-07-26T10:16:33.198Z,16.60
2022-07-26T10:19:45.641Z,18.70
2022-07-26T10:22:50.758Z,18.20
2022-07-26T10:25:53.032Z,19.30
2022-07-26T10:28:55.379Z,22.00
2022-07-26T10:32:00.468Z,22.50
2022-07-26T10:35:34.575Z,23.00
2022-07-26T10:38:37.848Z,27.90
2022-07-26T10:41:44.095Z,28.30
2022-07-26T10:44:45.888Z,30.40
2022-07-26T10:48:14.718Z,31.30
2022-07-26T10:51:27.781Z,32.00
2022-07-26T10:54:29.839Z,34.30
2022-07-26T10:57:34.663Z,34.90
2022-07-26T11:00:36.559Z,35.20
2022-07-26T11:03:40.559Z,36.40
2022-07-26T11:06:42.623Z,35.80
2022-07-26T11:09:44.541Z,35.60
2022-07-26T11:12:46.292Z,33.30
2022-07-26T11:15:50.906Z,31.50
2022-07-26T11:18:52.795Z,26.80
2022-07-26T11:22:03.635Z,23.10
2022-07-26T11:25:05.978Z,23.30
2022-07-26T11:28:08.380Z,22.40
2022-07-26T11:31:11.582Z,21.90
2022-07-26T11:34:22.094Z,22.00
2022-07-26T11:37:24.104Z,22.50
2022-07-26T11:40:46.120Z,24.20
2022-07-26T11:43:49.427Z,25.00
2022-07-26T11:46:51.738Z,22.90
2022-07-26T11:50:13.951Z,21.00
2022-07-26T11:53:23.249Z,19.50
2022-07-26T11:56:25.948Z,21.00
2022-07-26T11:59:30.495Z,21.70
2022-07-26T12:02:32.377Z,22.80
2022-07-26T12:05:34.859Z,22.70
2022-07-26T12:08:40.375Z,23.80
2022-07-26T12:11:44.468Z,24.30
2022-07-26T12:15:05.729Z,23.30
2022-07-26T12:18:08.931Z,24.50
2022-07-26T12:21:11.355Z,22.60
2022-07-26T12:24:45.060Z,23.10
2022-07-26T12:27:47.439Z,23.10
2022-07-26T12:30:49.219Z,21.60
2022-07-26T12:33:51.191Z,22.20
2022-07-26T12:36:53.097Z,22.50
2022-07-26T12:40:07.968Z,22.70
2022-07-26T12:43:10.179Z,20.60
2022-07-26T12:46:12.203Z,21.70
2022-07-26T12:49:14.005Z,20.80
2022-07-26T12:52:17.623Z,20.80
2022-07-26T12:55:21.673Z,20.80
2022-07-26T12:58:23.446Z,19.00
2022-07-26T13:01:25.205Z,18.40
2022-07-26T13:04:27.112Z,20.10
2022-07-26T13:07:28.934Z,18.10
2022-07-26T13:10:33.656Z,17.70
2022-07-26T13:13:36.061Z,18.50
2022-07-26T13:16:37.899Z,17.10
2022-07-26T13:19:39.817Z,16.50
2022-07-26T13:22:42.351Z,17.50
2022-07-26T13:25:44.096Z,17.30
2022-07-26T13:28:49.639Z,17.20
2022-07-26T13:31:52.133Z,16.50
2022-07-26T13:34:53.834Z,17.10
2022-07-26T13:37:55.512Z,15.80
2022-07-26T13:40:57.322Z,16.10
2022-07-26T13:44:00.908Z,10.10
2022-07-26T13:47:02.676Z,8.90
2022-07-26T13:50:04.707Z,8.20
2022-07-26T13:53:08.503Z,7.20
2022-07-26T13:56:10.471Z,7.30
2022-07-26T13:59:13.018Z,6.50
2022-07-26T14:02:15.312Z,5.80
2022-07-26T14:05:17.544Z,11.40
2022-07-26T14:08:19.964Z,9.30
2022-07-26T14:11:21.979Z,7.80
2022-07-26T14:14:23.786Z,8.40
2022-07-26T14:17:25.481Z,6.80
2022-07-26T14:20:27.611Z,7.00
2022-07-26T14:23:29.854Z,7.00
2022-07-26T14:26:31.977Z,7.30
2022-07-26T14:29:34.009Z,7.70
2022-07-26T14:32:35.723Z,9.20
2022-07-26T14:35:37.600Z,14.50
2022-07-26T14:38:41.337Z,9.00
2022-07-26T14:41:43.203Z,8.70
2022-07-26T14:44:45.158Z,8.30
2022-07-26T14:47:46.981Z,8.20
2022-07-26T14:51:08.686Z,8.10
2022-07-26T14:54:13.186Z,8.90
2022-07-26T14:57:15.511Z,8.70
2022-07-26T15:00:18.788Z,8.20
2022-07-26T15:03:20.834Z,8.40
2022-07-26T15:06:22.830Z,8.30
2022-07-26T15:09:24.675Z,8.80
2022-07-26T15:12:26.592Z,8.40
2022-07-26T15:15:29.263Z,8.80
2022-07-26T15:18:31.038Z,8.80
2022-07-26T15:21:32.901Z,8.20
2022-07-26T15:24:39.571Z,9.20
2022-07-26T15:27:42.158Z,8.90
2022-07-26T15:30:44.122Z,9.50
2022-07-26T15:33:46.722Z,10.10
2022-07-26T15:36:48.450Z,10.30
2022-07-26T15:39:51.853Z,10.60
2022-07-26T15:42:54.017Z,10.20
2022-07-26T15:45:57.717Z,10.50
2022-07-26T15:49:01.839Z,10.10
2022-07-26T15:52:04.714Z,9.50
2022-07-26T15:55:07.986Z,9.70
2022-07-26T15:58:09.988Z,9.70
2022-07-26T16:01:11.888Z,9.40
2022-07-26T16:04:14.854Z,11.10
2022-07-26T16:07:16.951Z,10.40
2022-07-26T16:10:18.813Z,10.30
2022-07-26T16:13:20.498Z,11.40
2022-07-26T16:16:22.644Z,12.20
2022-07-26T16:19:24.453Z,12.90
2022-07-26T16:22:26.302Z,14.30
2022-07-26T16:25:28.030Z,14.20
2022-07-26T16:28:29.826Z,14.10
2022-07-26T16:31:31.693Z,13.30
2022-07-26T16:34:34.859Z,14.70
2022-07-26T16:37:36.663Z,15.30
2022-07-26T16:40:38.341Z,14.00
2022-07-26T16:43:40.516Z,14.00
2022-07-26T16:46:42.387Z,15.90
2022-07-26T16:49:46.285Z,17.00
2022-07-26T16:52:48.082Z,18.30
2022-07-26T16:55:51.968Z,18.80
2022-07-26T16:58:53.734Z,19.50
2022-07-26T17:01:55.627Z,21.80
2022-07-26T17:05:01.363Z,25.80
2022-07-26T17:08:03.152Z,26.00
2022-07-26T17:11:04.998Z,27.30
2022-07-26T17:14:07.081Z,27.70
2022-07-26T17:17:09.103Z,28.30
2022-07-26T17:20:11.427Z,30.10
2022-07-26T17:23:13.244Z,30.10
2022-07-26T17:26:19.014Z,30.40
2022-07-26T17:29:21.003Z,31.50
2022-07-26T17:32:22.758Z,29.00
2022-07-26T17:35:26.697Z,30.30
2022-07-26T17:38:28.551Z,29.40
2022-07-26T17:41:32.975Z,29.80
2022-07-26T17:44:35.374Z,30.10
2022-07-26T17:47:37.327Z,30.80
2022-07-26T17:50:39.163Z,31.80
2022-07-26T17:53:43.406Z,31.50
2022-07-26T17:56:46.005Z,29.20
2022-07-26T17:59:47.781Z,28.40
2022-07-26T18:02:49.796Z,27.80
2022-07-26T18:05:51.942Z,27.50
2022-07-26T18:08:54.055Z,28.50
2022-07-26T18:11:55.745Z,28.20
2022-07-26T18:14:57.687Z,29.60
2022-07-26T18:17:59.737Z,29.10
2022-07-26T18:21:01.550Z,29.20
2022-07-26T18:24:16.261Z,29.70
2022-07-26T18:27:19.708Z,29.60
2022-07-26T18:30:21.801Z,29.90
2022-07-26T18:33:23.626Z,29.40
2022-07-26T18:36:28.334Z,28.90
2022-07-26T18:39:32.935Z,29.70
2022-07-26T18:42:36.327Z,30.30
2022-07-26T18:45:38.040Z,29.70
2022-07-26T18:48:41.786Z,30.10
2022-07-26T18:51:44.742Z,29.10
2022-07-26T18:54:50.550Z,29.30
2022-07-26T18:57:53.857Z,29.50
2022-07-26T19:00:55.711Z,31.10
2022-07-26T19:03:57.522Z,31.30
2022-07-26T19:06:59.246Z,30.50
2022-07-26T19:10:01.036Z,31.40
2022-07-26T19:13:02.823Z,31.00
2022-07-26T19:16:04.799Z,31.80
2022-07-26T19:19:06.816Z,33.20
2022-07-26T19:22:08.760Z,31.80
2022-07-26T19:25:13.623Z,33.30
2022-07-26T19:28:15.365Z,34.60
2022-07-26T19:31:17.193Z,35.30
2022-07-26T19:34:19.441Z,33.70
2022-07-26T19:37:21.628Z,33.20
2022-07-26T19:40:23.872Z,32.30
2022-07-26T19:43:25.652Z,32.40
2022-07-26T19:46:27.591Z,32.60
2022-07-26T19:49:29.687Z,34.00
2022-07-26T19:52:31.598Z,31.70
2022-07-26T19:55:33.515Z,33.20
2022-07-26T19:58:35.287Z,32.70
2022-07-26T20:01:37.341Z,33.50
2022-07-26T20:04:42.959Z,32.40
2022-07-26T20:07:49.139Z,31.90
2022-07-26T20:10:51.675Z,33.60
2022-07-26T20:13:53.995Z,32.90
2022-07-26T20:16:58.019Z,33.80
2022-07-26T20:19:59.744Z,32.00
2022-07-26T20:23:03.555Z,32.30
2022-07-26T20:26:05.298Z,31.80
2022-07-26T20:29:07.649Z,30.30
2022-07-26T20:32:09.489Z,29.10
2022-07-26T20:35:11.548Z,29.20
2022-07-26T20:38:13.392Z,29.10
2022-07-26T20:41:15.267Z,29.30
2022-07-26T20:44:19.759Z,29.00
2022-07-26T20:47:24.824Z,29.00
2022-07-26T20:50:26.653Z,28.50
2022-07-26T20:53:28.346Z,28.10
2022-07-26T20:56:32.455Z,34.80
2022-07-26T20:59:35.253Z,39.70
2022-07-26T21:02:37.192Z,41.20
2022-07-26T21:05:39.019Z,43.40
2022-07-26T21:08:40.734Z,42.50
2022-07-26T21:11:42.433Z,41.60
2022-07-26T21:14:44.285Z,39.80
2022-07-26T21:17:46.053Z,38.40
2022-07-26T21:20:48.099Z,36.00
2022-07-26T21:23:49.888Z,35.60
2022-07-26T21:26:51.815Z,36.20
2022-07-26T21:29:54.419Z,35.50
2022-07-26T21:32:56.315Z,35.00
2022-07-26T21:35:58.187Z,36.50
2022-07-26T21:38:59.986Z,37.50
2022-07-26T21:42:02.610Z,38.40
2022-07-26T21:45:05.457Z,38.10
2022-07-26T21:48:07.279Z,36.40
2022-07-26T21:51:08.998Z,36.30
2022-07-26T21:54:10.800Z,33.60
2022-07-26T21:57:12.651Z,34.30
2022-07-26T22:00:15.900Z,33.00
2022-07-26T22:03:29.929Z,29.80
2022-07-26T22:06:34.346Z,26.00
2022-07-26T22:09:36.219Z,29.80
2022-07-26T22:12:37.953Z,34.60
2022-07-26T22:15:39.775Z,36.30
2022-07-26T22:18:41.595Z,37.10
2022-07-26T22:21:43.358Z,37.20
2022-07-26T22:24:45.126Z,41.60
2022-07-26T22:27:46.827Z,42.10
2022-07-26T22:30:48.669Z,43.20
2022-07-26T22:33:50.622Z,42.90
2022-07-26T22:36:52.598Z,43.70
2022-07-26T22:39:54.387Z,42.00
2022-07-26T22:42:58.640Z,41.10
2022-07-26T22:46:00.438Z,43.00
2022-07-26T22:49:02.367Z,42.60
2022-07-26T22:52:04.315Z,43.90
2022-07-26T22:55:06.586Z,42.20
2022-07-26T22:58:08.560Z,42.90
2022-07-26T23:01:10.298Z,39.30
2022-07-26T23:04:12.143Z,39.00
2022-07-26T23:07:14.726Z,37.60
2022-07-26T23:10:17.450Z,36.70
2022-07-26T23:13:19.284Z,36.80
2022-07-26T23:16:21.032Z,37.30
2022-07-26T23:19:25.294Z,34.80
2022-07-26T23:22:27.375Z,36.10
2022-07-26T23:25:29.046Z,35.60
2022-07-26T23:28:35.739Z,34.90
2022-07-26T23:31:39.958Z,38.20
2022-07-26T23:34:41.651Z,40.50
2022-07-26T23:37:43.447Z,39.40
2022-07-26T23:40:45.191Z,42.20
2022-07-26T23:43:47.140Z,42.10
2022-07-26T23:46:48.897Z,37.20
2022-07-26T23:49:50.621Z,36.50
2022-07-26T23:52:52.346Z,35.40
2022-07-26T23:55:55.793Z,36.10
2022-07-26T23:58:57.586Z,34.40
